createdAt,value
2023-01-28T00:00:17.729Z,24.9
2023-01-28T00:05:40.975Z,24.9
2023-01-28T00:11:03.060Z,24.8
2023-01-28T00:16:25.772Z,24.8
2023-01-28T00:21:48.375Z,24.8
2023-01-28T00:27:11.620Z,24.8
2023-01-28T00:32:34.614Z,24.8
2023-01-28T00:37:57.352Z,24.8
2023-01-28T00:43:20.054Z,24.8
2023-01-28T00:48:42.597Z,24.8
2023-01-28T00:53:50.005Z,24.7
2023-01-28T00:59:12.770Z,24.7
2023-01-28T01:04:37.674Z,24.6
2023-01-28T01:10:00.469Z,24.6
2023-01-28T01:15:23.391Z,24.6
2023-01-28T01:20:46.766Z,24.6
2023-01-28T01:26:08.272Z,24.6
2023-01-28T01:31:30.795Z,24.6
2023-01-28T01:36:54.445Z,24.6
2023-01-28T01:42:02.018Z,24.5
2023-01-28T01:47:25.386Z,24.5
2023-01-28T01:52:32.296Z,24.5
2023-01-28T01:57:55.072Z,24.5
2023-01-28T02:03:17.990Z,24.5
2023-01-28T02:08:25.104Z,24.7
2023-01-28T02:13:48.023Z,25.1
2023-01-28T02:19:03.682Z,25.7
2023-01-28T02:24:10.325Z,26.2
2023-01-28T02:29:18.230Z,26.8
2023-01-28T02:34:25.271Z,27.3
2023-01-28T02:39:17.417Z,27.8
2023-01-28T02:44:24.489Z,28.3
2023-01-28T02:49:00.895Z,28.7
2023-01-28T02:53:51.994Z,29.1
2023-01-28T02:58:59.018Z,29.5
2023-01-28T03:04:06.944Z,29.9
2023-01-28T03:09:14.383Z,30.4
2023-01-28T03:14:36.841Z,30.8
2023-01-28T03:19:59.321Z,31.3
2023-01-28T03:25:21.464Z,31.8
2023-01-28T03:30:45.296Z,32.2
2023-01-28T03:35:52.665Z,32.6
2023-01-28T03:40:59.531Z,32.8
2023-01-28T03:46:06.967Z,33
2023-01-28T03:51:30.156Z,33.2
2023-01-28T03:56:54.523Z,33.3
2023-01-28T04:02:17.313Z,33.3
2023-01-28T04:07:39.443Z,33.4
2023-01-28T04:12:15.014Z,33.4
2023-01-28T04:17:06.501Z,33.4
2023-01-28T04:21:57.754Z,33.4
2023-01-28T04:27:04.973Z,33.4
2023-01-28T04:32:28.040Z,33.4
2023-01-28T04:37:50.284Z,33.4
2023-01-28T04:43:12.575Z,33.4
2023-01-28T04:48:35.458Z,33.4
2023-01-28T04:53:42.171Z,33.4
2023-01-28T04:59:04.723Z,33.4
2023-01-28T05:04:27.705Z,33.3
2023-01-28T05:09:49.700Z,33.3
2023-01-28T05:15:12.371Z,33.3
2023-01-28T05:20:35.585Z,33.3
2023-01-28T05:25:57.628Z,33.2
2023-01-28T05:31:20.415Z,33.2
2023-01-28T05:36:42.969Z,33.1
2023-01-28T05:42:04.881Z,33.1
2023-01-28T05:47:27.727Z,33
2023-01-28T05:52:52.087Z,33
2023-01-28T05:57:58.994Z,32.9
2023-01-28T06:03:22.311Z,32.9
2023-01-28T06:08:30.038Z,32.9
2023-01-28T06:13:36.949Z,32.8
2023-01-28T06:18:59.682Z,32.8
2023-01-28T06:24:22.165Z,32.7
2023-01-28T06:29:28.162Z,32.7
2023-01-28T06:34:35.760Z,32.6
2023-01-28T06:39:27.368Z,32.6
2023-01-28T06:44:34.368Z,32.6
2023-01-28T06:49:59.761Z,32.5
2023-01-28T06:55:24.971Z,32.4
2023-01-28T07:00:47.979Z,32.5
2023-01-28T07:06:10.820Z,32.4
2023-01-28T07:11:33.726Z,32.3
2023-01-28T07:16:56.205Z,32.3
2023-01-28T07:22:19.234Z,32.3
2023-01-28T07:27:44.398Z,32.2
2023-01-28T07:33:07.761Z,32.2
2023-01-28T07:38:30.182Z,32.1
2023-01-28T07:43:52.639Z,32.1
2023-01-28T07:48:59.300Z,32
2023-01-28T07:54:22.036Z,31.9
2023-01-28T07:59:47.027Z,31.9
2023-01-28T08:05:09.838Z,31.9
2023-01-28T08:10:33.063Z,31.9
2023-01-28T08:15:55.286Z,31.8
2023-01-28T08:21:17.418Z,31.8
2023-01-28T08:26:40.707Z,31.4
2023-01-28T08:32:03.917Z,30.6
2023-01-28T08:37:26.457Z,30.1
2023-01-28T08:42:48.413Z,29.8
2023-01-28T08:48:13.840Z,29.5
2023-01-28T08:53:38.762Z,29.3
2023-01-28T08:59:04.304Z,29.2
2023-01-28T09:04:45.394Z,29.1
2023-01-28T09:10:07.483Z,29
2023-01-28T09:15:30.404Z,28.9
2023-01-28T09:20:54.952Z,28.8
2023-01-28T09:26:17.957Z,28.8
2023-01-28T09:31:27.324Z,28.7
2023-01-28T09:36:50.263Z,28.6
2023-01-28T09:42:13.040Z,28.5
2023-01-28T09:47:35.702Z,27.5
2023-01-28T09:52:58.639Z,26.4
2023-01-28T09:58:22.119Z,25.3
2023-01-28T10:03:46.518Z,24.4
2023-01-28T10:09:09.043Z,23.8
2023-01-28T10:14:32.092Z,23.3
2023-01-28T10:20:11.733Z,22.8
2023-01-28T10:25:34.095Z,22.4
2023-01-28T10:30:56.782Z,22.1
2023-01-28T10:36:20.057Z,21.9
2023-01-28T10:41:56.487Z,21.6
2023-01-28T10:47:18.950Z,21.4
2023-01-28T10:52:41.987Z,21.3
2023-01-28T11:03:12.975Z,20.9
2023-01-28T11:08:35.180Z,20.8
2023-01-28T11:14:13.274Z,20.7
2023-01-28T11:19:20.442Z,20.6
2023-01-28T11:24:43.215Z,20.6
2023-01-28T11:30:05.493Z,20.4
2023-01-28T11:35:29.973Z,20.4
2023-01-28T11:40:54.714Z,20.3
2023-01-28T11:46:21.338Z,20.3
2023-01-28T11:51:44.289Z,20.2
2023-01-28T11:57:36.925Z,20.1
2023-01-28T12:03:00.139Z,20.1
2023-01-28T12:08:23.034Z,20
2023-01-28T12:13:45.808Z,19.9
2023-01-28T12:18:52.830Z,19.8
2023-01-28T12:24:15.508Z,19.8
2023-01-28T12:29:38.900Z,19.8
2023-01-28T12:35:02.660Z,19.7
2023-01-28T12:40:25.275Z,19.6
2023-01-28T12:45:47.998Z,19.6
2023-01-28T12:51:11.003Z,19.6
2023-01-28T12:56:33.633Z,19.6
2023-01-28T13:01:57.091Z,19.5
2023-01-28T13:07:20.150Z,19.5
2023-01-28T13:12:42.756Z,19.4
2023-01-28T13:18:16.394Z,19.4
2023-01-28T13:23:45.456Z,19.4
2023-01-28T13:29:10.585Z,19.4
2023-01-28T13:34:33.743Z,19.3
2023-01-28T13:39:56.097Z,19.4
2023-01-28T13:45:18.474Z,19.3
2023-01-28T13:50:41.576Z,19.3
2023-01-28T13:56:18.259Z,19.3
2023-01-28T14:01:27.390Z,19.3
2023-01-28T14:06:50.923Z,19.3
2023-01-28T14:12:14.554Z,19.3
2023-01-28T14:17:37.702Z,19.3
2023-01-28T14:23:00.996Z,19.3
2023-01-28T14:28:23.973Z,19.2
2023-01-28T14:33:49.682Z,19.1
2023-01-28T14:39:12.782Z,19.1
2023-01-28T14:44:20.329Z,19.1
2023-01-28T14:49:44.566Z,19
2023-01-28T14:55:07.565Z,19
2023-01-28T15:00:32.864Z,18.9
2023-01-28T15:06:10.055Z,18.9
2023-01-28T15:11:33.135Z,18.9
2023-01-28T15:16:56.249Z,18.9
2023-01-28T15:22:19.191Z,18.9
2023-01-28T15:27:44.205Z,18.9
2023-01-28T15:33:09.100Z,18.9
2023-01-28T15:38:31.620Z,18.9
2023-01-28T15:43:54.754Z,18.9
2023-01-28T15:49:17.843Z,18.8
2023-01-28T15:54:40.664Z,18.8
2023-01-28T16:00:07.256Z,18.8
2023-01-28T16:10:40.481Z,18.6
2023-01-28T16:16:04.267Z,18.4
2023-01-28T16:21:12.459Z,18.3
2023-01-28T16:26:36.452Z,18.3
2023-01-28T16:32:02.223Z,18.2
2023-01-28T16:37:17.527Z,18.1
2023-01-28T16:42:01.750Z,18
2023-01-28T16:47:31.507Z,17.9
2023-01-28T16:52:57.807Z,17.9
2023-01-28T16:58:40.511Z,17.9
2023-01-28T17:04:04.904Z,17.8
2023-01-28T17:09:28.029Z,17.9
2023-01-28T17:14:52.002Z,17.8
2023-01-28T17:20:00.965Z,17.8
2023-01-28T17:25:09.873Z,17.8
2023-01-28T17:30:34.607Z,17.7
2023-01-28T17:35:59.569Z,17.6
2023-01-28T17:41:23.691Z,17.6
2023-01-28T17:46:50.156Z,17.6
2023-01-28T17:52:18.878Z,17.6
2023-01-28T17:57:47.569Z,17.6
2023-01-28T18:03:21.225Z,17.5
2023-01-28T18:08:48.671Z,17.5
2023-01-28T18:14:16.411Z,17.5
2023-01-28T18:19:43.107Z,17.4
2023-01-28T18:25:21.873Z,17.4
2023-01-28T18:30:57.735Z,17.4
2023-01-28T18:36:13.703Z,17.4
2023-01-28T18:41:27.199Z,17.4
2023-01-28T18:46:47.715Z,17.4
2023-01-28T18:52:36.846Z,17.3
2023-01-28T18:58:18.660Z,17.3
2023-01-28T19:03:59.161Z,17.3
2023-01-28T19:09:20.785Z,17.3
2023-01-28T19:14:43.552Z,17.3
2023-01-28T19:20:19.419Z,17.3
2023-01-28T19:26:07.316Z,17.3
2023-01-28T19:31:46.619Z,17.3
2023-01-28T19:37:22.810Z,17.3
2023-01-28T19:42:57.319Z,17.3
2023-01-28T19:48:17.418Z,17.3
2023-01-28T19:53:37.114Z,17.2
2023-01-28T19:58:54.101Z,17.3
2023-01-28T20:04:17.936Z,17.3
2023-01-28T20:10:04.763Z,17.3
2023-01-28T20:15:44.752Z,17.3
2023-01-28T20:21:25.013Z,17.3
2023-01-28T20:27:00.933Z,17.4
2023-01-28T20:32:54.764Z,17.8
2023-01-28T20:38:30.717Z,18.6
2023-01-28T20:44:06.523Z,19.5
2023-01-28T20:49:28.088Z,20.4
2023-01-28T20:54:58.054Z,21.3
2023-01-28T21:00:31.097Z,22.3
2023-01-28T21:05:51.419Z,23.3
2023-01-28T21:11:09.287Z,24.3
2023-01-28T21:16:20.102Z,25
2023-01-28T21:21:11.940Z,25.4
2023-01-28T21:26:20.085Z,25.7
2023-01-28T21:31:27.817Z,25.5
2023-01-28T21:36:52.887Z,24.8
2023-01-28T21:42:20.088Z,24.3
2023-01-28T21:47:16.144Z,23.8
2023-01-28T21:52:23.563Z,23.6
2023-01-28T21:57:35.126Z,23.4
2023-01-28T22:02:42.637Z,23.3
2023-01-28T22:07:49.594Z,23.1
2023-01-28T22:12:41.520Z,23.1
2023-01-28T22:17:33.447Z,23
2023-01-28T22:22:43.623Z,22.9
2023-01-28T22:27:50.761Z,22.9
2023-01-28T22:32:58.716Z,22.9
2023-01-28T22:37:50.265Z,22.9
2023-01-28T22:42:56.999Z,22.8
2023-01-28T22:48:04.784Z,22.8
2023-01-28T22:53:11.247Z,22.8
2023-01-28T22:58:17.860Z,22.8
2023-01-28T23:03:56.666Z,22.8
2023-01-28T23:08:47.700Z,22.8
2023-01-28T23:14:09.809Z,22.7
2023-01-28T23:19:33.066Z,22.7
2023-01-28T23:24:39.710Z,22.6
2023-01-28T23:29:32.173Z,22.6
2023-01-28T23:34:39.839Z,22.6
2023-01-28T23:39:46.636Z,22.6
2023-01-28T23:45:09.137Z,22.6
2023-01-28T23:50:37.871Z,22.6
2023-01-28T23:55:59.707Z,22.6
